Time;durP1;ratioP1;P1;durP2;ratioP2;P2;SDS_P1;SDS_P2;PMS_P1;PMS_P2;Temp;Humidity;BMP_temperature;BMP_pressure;BME280_temperature;BME280_humidity;BME280_pressure;Samples;Min_cycle;Max_cycle;Signal;HPM_P1;HPM_P2
2022/12/14 00:00:40;;;;;;;9.73;8.73;;;;;;;-4.28;84.22;100022.75;5074158;28;20213;-73
2022/12/14 00:03:07;;;;;;;8.10;7.37;;;;;;;-4.29;84.09;100038.88;5074312;28;20251;-73
2022/12/14 00:05:34;;;;;;;9.80;7.63;;;;;;;-4.39;83.28;100053.84;5074262;28;20205;-73
2022/12/14 00:08:01;;;;;;;8.53;7.73;;;;;;;-4.36;83.54;100057.31;5074469;28;20221;-73
2022/12/14 00:10:29;;;;;;;9.70;7.83;;;;;;;-4.40;83.23;100064.84;5058878;28;20670;-73
2022/12/14 00:12:55;;;;;;;8.00;7.17;;;;;;;-4.35;83.55;100064.16;5054625;28;20209;-73
2022/12/14 00:15:22;;;;;;;7.53;6.60;;;;;;;-4.34;82.83;100071.84;5053809;28;20275;-73
2022/12/14 00:17:49;;;;;;;7.77;6.97;;;;;;;-4.42;83.08;100076.66;5053986;28;20226;-73
2022/12/14 00:20:15;;;;;;;8.60;7.70;;;;;;;-4.43;82.99;100071.50;5053777;28;20206;-73
2022/12/14 00:22:42;;;;;;;7.77;6.93;;;;;;;-4.43;83.69;100074.06;5054209;28;20213;-73
2022/12/14 00:25:09;;;;;;;7.33;6.60;;;;;;;-4.51;83.49;100073.78;5053978;28;20205;-72
2022/12/14 00:27:42;;;;;;;8.97;7.20;;;;;;;-4.51;83.68;100057.66;5054154;28;20252;-73
2022/12/14 00:30:10;;;;;;;8.47;6.80;;;;;;;-4.54;83.92;100053.28;5053916;28;20229;-72
2022/12/14 00:32:36;;;;;;;7.97;7.17;;;;;;;-4.48;83.23;100058.63;5053931;28;20209;-73
2022/12/14 00:35:03;;;;;;;8.13;6.60;;;;;;;-4.47;82.51;100067.13;5053920;28;20248;-72
2022/12/14 00:37:29;;;;;;;7.50;6.80;;;;;;;-4.44;81.98;100083.38;5052535;28;20226;-73
2022/12/14 00:39:56;;;;;;;8.57;7.00;;;;;;;-4.54;82.03;100090.63;5053402;28;20217;-72
2022/12/14 00:42:22;;;;;;;8.23;7.17;;;;;;;-4.70;82.82;100086.66;5053597;28;20675;-73
2022/12/14 00:44:50;;;;;;;7.10;6.37;;;;;;;-4.65;82.71;100083.47;5053942;28;20209;-72
2022/12/14 00:47:16;;;;;;;8.70;7.80;;;;;;;-4.64;82.12;100086.88;5053553;28;20620;-73
2022/12/14 00:49:43;;;;;;;8.77;7.33;;;;;;;-4.63;82.47;100081.84;5053650;28;20212;-73
2022/12/14 00:52:09;;;;;;;8.40;7.10;;;;;;;-4.62;82.76;100088.69;5053425;28;20241;-73
2022/12/14 00:54:36;;;;;;;7.90;7.10;;;;;;;-4.63;82.56;100081.00;5053286;28;20233;-73
2022/12/14 00:57:03;;;;;;;8.03;6.97;;;;;;;-4.58;82.03;100076.91;5053137;28;20690;-73
2022/12/14 00:59:29;;;;;;;9.50;7.87;;;;;;;-4.62;82.18;100082.72;5053638;28;20209;-73
2022/12/14 01:01:57;;;;;;;7.93;7.10;;;;;;;-4.61;82.60;100084.47;5053272;28;20690;-73
2022/12/14 01:04:24;;;;;;;10.63;8.07;;;;;;;-4.56;82.44;100084.63;5064263;28;20209;-73
2022/12/14 01:06:53;;;;;;;9.07;7.83;;;;;;;-4.62;82.96;100077.63;5073131;28;20255;-73
2022/12/14 01:09:21;;;;;;;9.90;8.03;;;;;;;-4.56;83.46;100060.00;5073346;28;20204;-73
2022/12/14 01:11:48;;;;;;;8.63;7.73;;;;;;;-4.52;83.74;100059.34;5073205;28;20209;-73
2022/12/14 01:14:18;;;;;;;9.40;7.50;;;;;;;-4.55;83.09;100056.66;5073280;28;20200;-73
2022/12/14 01:16:45;;;;;;;9.60;8.60;;;;;;;-4.55;83.37;100056.66;5073009;28;20327;-73
2022/12/14 01:19:14;;;;;;;8.80;7.87;;;;;;;-4.50;83.28;100056.81;5072620;28;20204;-73
2022/12/14 01:21:41;;;;;;;10.00;8.80;;;;;;;-4.52;83.20;100056.78;5072870;28;20209;-73
2022/12/14 01:24:07;;;;;;;9.60;8.13;;;;;;;-4.48;83.02;100053.53;5072819;28;20670;-73
2022/12/14 01:26:37;;;;;;;9.10;8.13;;;;;;;-4.53;82.67;100057.59;5072867;28;20246;-73
2022/12/14 01:29:05;;;;;;;8.87;7.77;;;;;;;-4.44;82.52;100051.94;5073060;28;20204;-73
2022/12/14 01:31:33;;;;;;;8.27;7.37;;;;;;;-4.50;82.02;100057.72;5072370;28;20231;-73
2022/12/14 01:34:00;;;;;;;8.90;7.83;;;;;;;-4.49;82.51;100066.22;5072981;28;20208;-73
2022/12/14 01:36:30;;;;;;;11.60;8.63;;;;;;;-4.44;82.03;100074.88;5072685;28;20243;-73
2022/12/14 01:38:59;;;;;;;10.93;8.70;;;;;;;-4.43;82.10;100077.47;5072838;28;20227;-73
2022/12/14 01:41:28;;;;;;;9.27;8.27;;;;;;;-4.44;82.13;100074.88;5072387;28;20204;-73
2022/12/14 01:43:57;;;;;;;9.20;8.30;;;;;;;-4.45;81.90;100074.00;5072564;28;20208;-73
2022/12/14 01:46:30;;;;;;;8.30;7.47;;;;;;;-4.48;81.97;100073.03;5072496;28;20898;-72
2022/12/14 01:49:02;;;;;;;8.33;7.53;;;;;;;-4.44;82.25;100068.09;5072090;28;20219;-73
2022/12/14 01:51:31;;;;;;;9.00;7.90;;;;;;;-4.44;82.10;100070.66;5072481;28;20564;-73
2022/12/14 01:54:00;;;;;;;10.40;8.03;;;;;;;-4.46;82.11;100067.19;5072240;28;20662;-73
2022/12/14 01:56:28;;;;;;;8.37;7.57;;;;;;;-4.44;81.42;100069.75;5072051;28;20247;-73
2022/12/14 01:58:59;;;;;;;8.57;7.67;;;;;;;-4.45;81.57;100079.09;5072403;28;20216;-73
2022/12/14 02:01:25;;;;;;;8.37;7.57;;;;;;;-4.46;81.29;100081.59;5072315;28;20205;-73
2022/12/14 02:03:53;;;;;;;8.77;7.77;;;;;;;-4.43;81.16;100084.25;5072520;28;20220;-73
2022/12/14 02:06:23;;;;;;;9.13;8.20;;;;;;;-4.48;81.24;100091.75;5072182;28;20783;-73
2022/12/14 02:08:53;;;;;;;7.77;7.03;;;;;;;-4.50;81.50;100085.72;5072008;28;20224;-73
2022/12/14 02:11:29;;;;;;;9.40;8.07;;;;;;;-4.53;80.99;100075.41;5071791;28;20213;-73
2022/12/14 02:13:55;;;;;;;10.67;7.57;;;;;;;-4.57;81.58;100076.13;5072320;28;20204;-73
2022/12/14 02:16:22;;;;;;;9.43;7.57;;;;;;;-4.56;81.15;100075.28;5072179;28;20235;-73
2022/12/14 02:18:48;;;;;;;8.60;7.70;;;;;;;-4.54;81.35;100080.44;5066313;28;20225;-73
2022/12/14 02:21:21;;;;;;;8.87;7.37;;;;;;;-4.48;81.36;100083.22;5051368;28;20206;-73
2022/12/14 02:24:07;;;;;;;8.30;7.50;;;;;;;-4.50;81.44;100077.19;5052075;28;20213;-73
2022/12/14 02:26:52;;;;;;;9.97;7.50;;;;;;;-4.50;81.55;100079.75;5052141;28;20554;-73
2022/12/14 02:29:50;;;;;;;9.33;8.33;;;;;;;-4.44;81.69;100067.22;5051714;28;20705;-73
2022/12/14 02:32:32;;;;;;;8.50;7.73;;;;;;;-4.52;80.14;100084.81;5051996;28;20594;-73
2022/12/14 02:35:03;;;;;;;10.40;8.60;;;;;;;-4.60;80.47;100094.72;5051765;28;20259;-73
2022/12/14 02:37:39;;;;;;;8.67;7.83;;;;;;;-4.68;79.58;100092.69;5051647;28;20229;-73
2022/12/14 02:40:19;;;;;;;13.20;8.10;;;;;;;-4.53;80.59;100100.03;5051758;28;20220;-73
2022/12/14 02:42:56;;;;;;;10.07;9.03;;;;;;;-4.43;80.83;100084.25;5051827;28;20201;-73
2022/12/14 02:45:30;;;;;;;9.53;8.53;;;;;;;-4.39;80.55;100074.22;5051959;28;20211;-73
2022/12/14 02:48:02;;;;;;;9.40;8.40;;;;;;;-4.43;80.71;100061.31;5051588;28;20228;-73
2022/12/14 02:50:38;;;;;;;9.27;8.37;;;;;;;-4.37;80.81;100060.69;5051330;28;20201;-73
2022/12/14 02:53:14;;;;;;;9.33;8.33;;;;;;;-4.42;80.44;100063.94;5051519;28;20201;-73
2022/12/14 02:55:45;;;;;;;9.67;8.40;;;;;;;-4.54;80.38;100071.13;5051634;28;20721;-73
2022/12/14 02:58:17;;;;;;;9.10;8.00;;;;;;;-4.52;80.78;100066.97;5051338;28;20737;-73
2022/12/14 03:00:45;;;;;;;10.57;8.17;;;;;;;-4.56;81.01;100056.59;5053478;28;20670;-73
2022/12/14 03:03:11;;;;;;;9.47;8.47;;;;;;;-4.57;81.17;100050.66;5055770;28;20220;-73
2022/12/14 03:05:38;;;;;;;9.43;7.97;;;;;;;-4.62;81.40;100037.75;5056104;28;20319;-72
2022/12/14 03:08:08;;;;;;;10.13;8.97;;;;;;;-4.59;81.55;100029.34;5055823;28;20229;-73
2022/12/14 03:10:39;;;;;;;9.97;8.93;;;;;;;-4.63;81.82;100024.97;5055565;28;20580;-73
2022/12/14 03:13:15;;;;;;;10.90;8.47;;;;;;;-4.63;81.75;100014.78;5055377;28;20205;-73
2022/12/14 03:15:48;;;;;;;9.23;7.90;;;;;;;-4.61;81.85;100005.53;5055356;28;20232;-73
2022/12/14 03:18:18;;;;;;;10.93;9.13;;;;;;;-4.55;80.93;100009.97;5055627;28;20226;-73
2022/12/14 03:20:48;;;;;;;11.47;9.10;;;;;;;-4.55;80.65;100012.50;5054838;28;20213;-73
2022/12/14 03:23:20;;;;;;;11.03;9.07;;;;;;;-4.53;80.28;100011.75;5055254;28;20205;-73
2022/12/14 03:25:54;;;;;;;10.37;8.73;;;;;;;-4.53;80.56;100026.16;5055294;28;20201;-73
2022/12/14 03:28:24;;;;;;;9.47;8.50;;;;;;;-4.53;80.04;100021.06;5055198;28;20244;-73
2022/12/14 03:30:56;;;;;;;10.40;9.30;;;;;;;-4.51;79.81;100027.09;5054876;28;20556;-73
2022/12/14 03:33:26;;;;;;;10.33;8.53;;;;;;;-4.59;80.00;100026.81;5055454;28;20205;-73
2022/12/14 03:35:58;;;;;;;9.97;8.97;;;;;;;-4.61;80.20;100028.44;5054901;28;20302;-73
2022/12/14 03:38:31;;;;;;;11.40;9.07;;;;;;;-4.65;79.85;100021.50;5055382;28;20228;-73
2022/12/14 03:41:06;;;;;;;10.07;9.00;;;;;;;-4.64;79.34;100025.78;5054860;28;20210;-73
2022/12/14 03:43:38;;;;;;;11.53;9.37;;;;;;;-4.59;79.39;100039.53;5054925;28;20212;-73
2022/12/14 03:46:12;;;;;;;12.50;8.60;;;;;;;-4.61;79.93;100046.25;5054805;28;20209;-73
2022/12/14 03:48:42;;;;;;;10.53;8.83;;;;;;;-4.54;79.69;100030.38;5054878;28;20228;-73
2022/12/14 03:51:14;;;;;;;10.93;9.20;;;;;;;-4.50;79.56;100029.69;5054674;28;20210;-73
2022/12/14 03:53:48;;;;;;;9.93;8.87;;;;;;;-4.49;79.20;100033.97;5054856;28;20210;-73
2022/12/14 03:56:19;;;;;;;10.33;9.20;;;;;;;-4.50;78.96;100044.09;5054662;28;20252;-73
2022/12/14 03:58:54;;;;;;;11.40;9.50;;;;;;;-4.53;79.31;100044.00;5054491;28;20243;-73
2022/12/14 04:01:32;;;;;;;12.63;9.73;;;;;;;-4.66;79.37;100047.75;5054498;28;20251;-73
2022/12/14 04:04:03;;;;;;;10.27;9.07;;;;;;;-4.62;78.57;100045.41;5054839;28;20214;-73
2022/12/14 04:06:39;;;;;;;10.23;9.13;;;;;;;-4.62;79.13;100045.41;5054507;28;20197;-73
2022/12/14 04:09:19;;;;;;;11.37;9.60;;;;;;;-4.69;78.33;100047.66;5054330;28;20216;-72
2022/12/14 04:20:17;;;;;;;13.03;9.27;;;;;;;-4.96;79.24;100015.31;5053919;28;20266;-73
2022/12/14 04:22:48;;;;;;;10.40;8.67;;;;;;;-5.00;78.52;100021.09;5054057;28;20693;-73
2022/12/14 04:29:54;;;;;;;11.13;9.33;;;;;;;-5.16;78.70;100032.38;5054240;28;20314;-73
2022/12/14 04:30:58;;;;;;;10.60;9.07;;;;;;;-5.29;79.23;100035.25;5053612;28;20213;-73
2022/12/14 04:36:14;;;;;;;10.40;9.30;;;;;;;-5.22;79.24;100017.75;5054088;28;20756;-75
2022/12/14 04:38:44;;;;;;;9.60;8.60;;;;;;;-5.34;79.82;100017.28;5053881;28;20221;-75
2022/12/14 04:41:15;;;;;;;13.77;9.93;;;;;;;-5.36;79.49;99996.03;5053738;28;20201;-75
2022/12/14 04:43:45;;;;;;;11.17;8.97;;;;;;;-5.43;79.38;99991.50;5053718;28;20693;-73
2022/12/14 04:46:14;;;;;;;11.73;10.40;;;;;;;-5.51;79.35;99988.69;5053799;28;20208;-73
2022/12/14 04:48:47;;;;;;;12.47;10.30;;;;;;;-5.47;79.49;99997.28;5053840;28;20221;-73
2022/12/14 04:51:19;;;;;;;10.83;8.77;;;;;;;-5.47;80.28;99984.56;5053507;28;20209;-73
2022/12/14 04:53:50;;;;;;;11.27;9.23;;;;;;;-5.46;79.86;99964.28;5053581;28;20212;-72
2022/12/14 04:56:22;;;;;;;12.77;8.93;;;;;;;-5.55;80.45;99965.59;5053974;28;20233;-73
2022/12/14 04:58:49;;;;;;;9.90;9.00;;;;;;;-5.90;80.65;99960.91;5053186;28;20237;-72
2022/12/14 05:01:29;;;;;;;10.43;9.27;;;;;;;-5.89;81.35;99932.13;5053078;28;20210;-72
2022/12/14 05:04:04;;;;;;;9.30;8.33;;;;;;;-5.73;80.74;99902.22;5053485;28;20201;-75
2022/12/14 05:06:37;;;;;;;10.87;8.83;;;;;;;-5.60;80.15;99900.19;5053339;28;20208;-75
2022/12/14 05:09:14;;;;;;;9.73;8.73;;;;;;;-5.62;79.33;99916.22;5053154;28;20205;-75
2022/12/14 05:11:47;;;;;;;10.83;9.70;;;;;;;-5.72;78.99;99947.19;5052949;28;20201;-75
2022/12/14 05:14:21;;;;;;;11.07;9.37;;;;;;;-5.74;79.05;99947.13;5053188;28;20789;-75
2022/12/14 05:16:49;;;;;;;9.57;8.53;;;;;;;-5.72;79.49;99950.59;5053033;28;20233;-75
2022/12/14 05:19:16;;;;;;;10.60;9.53;;;;;;;-5.79;79.48;99951.16;5052563;28;20210;-73
2022/12/14 05:21:49;;;;;;;11.17;8.80;;;;;;;-5.85;79.20;99954.31;5053180;28;20205;-73
2022/12/14 05:24:17;;;;;;;9.63;8.63;;;;;;;-6.02;79.89;99951.16;5052421;28;20675;-74
2022/12/14 05:26:44;;;;;;;12.10;9.37;;;;;;;-5.93;80.03;99939.59;5052856;28;20201;-73
2022/12/14 05:29:10;;;;;;;10.17;9.17;;;;;;;-5.96;79.75;99940.38;5052975;28;20686;-73
2022/12/14 05:31:37;;;;;;;11.73;8.50;;;;;;;-6.07;80.71;99919.63;5052489;28;20217;-72
2022/12/14 05:34:04;;;;;;;10.63;9.47;;;;;;;-5.95;80.60;99898.91;5052922;28;20216;-73
2022/12/14 05:36:31;;;;;;;13.73;9.40;;;;;;;-5.95;80.86;99892.97;5052841;28;20232;-72
2022/12/14 05:38:58;;;;;;;11.50;8.83;;;;;;;-5.84;80.79;99884.91;5053073;28;20666;-73
2022/12/14 05:41:24;;;;;;;10.07;7.93;;;;;;;-5.87;80.25;99878.84;5052522;28;20205;-75
2022/12/14 05:43:51;;;;;;;10.03;8.27;;;;;;;-5.94;79.73;99882.84;5052545;28;20210;-75
2022/12/14 05:46:17;;;;;;;12.50;7.83;;;;;;;-5.93;79.26;99893.84;5052399;28;20701;-74
2022/12/14 05:48:44;;;;;;;10.17;8.67;;;;;;;-5.85;78.92;99905.16;5052545;28;20225;-74
2022/12/14 05:51:12;;;;;;;9.90;8.17;;;;;;;-5.89;78.68;99909.25;5052311;28;20205;-75
2022/12/14 05:53:40;;;;;;;9.93;8.47;;;;;;;-5.98;78.12;99931.84;5052431;28;20359;-73
2022/12/14 05:56:08;;;;;;;10.87;8.63;;;;;;;-5.98;77.94;99944.53;5052131;28;20694;-73
2022/12/14 05:58:35;;;;;;;9.43;8.50;;;;;;;-5.98;78.48;99949.63;5076464;23;20606;-73
2022/12/14 06:01:03;;;;;;;10.53;8.47;;;;;;;-6.04;78.30;99950.25;5092168;28;20664;-75
2022/12/14 06:03:30;;;;;;;10.93;7.97;;;;;;;-6.03;78.67;99943.47;5092403;28;20215;-75
2022/12/14 06:06:00;;;;;;;11.53;9.30;;;;;;;-6.09;78.43;99955.94;5092335;28;20207;-75
2022/12/14 06:08:30;;;;;;;10.00;8.70;;;;;;;-6.08;78.58;99947.53;5092630;28;20256;-72
2022/12/14 06:11:03;;;;;;;8.03;7.33;;;;;;;-6.03;77.98;99940.94;5092197;28;20215;-73
2022/12/14 06:13:29;;;;;;;9.53;6.87;;;;;;;-6.05;78.61;99932.38;5092357;28;20200;-72
2022/12/14 06:16:07;;;;;;;11.00;8.60;;;;;;;-6.02;79.48;99924.91;5092259;28;20207;-73
2022/12/14 06:18:33;;;;;;;8.83;7.90;;;;;;;-5.96;79.70;99899.72;5091934;28;20227;-72
2022/12/14 06:21:00;;;;;;;9.80;8.50;;;;;;;-5.91;80.39;99882.06;5091722;28;20211;-72
2022/12/14 06:23:26;;;;;;;9.40;8.10;;;;;;;-5.84;81.21;99862.03;5092358;28;20207;-72
2022/12/14 06:25:54;;;;;;;9.60;8.40;;;;;;;-5.79;80.78;99839.31;5092150;28;20683;-72
2022/12/14 06:28:21;;;;;;;8.93;8.03;;;;;;;-5.76;81.53;99821.66;5092074;28;20227;-73
2022/12/14 06:30:48;;;;;;;9.07;7.77;;;;;;;-5.66;81.89;99805.06;5091960;28;20211;-73
2022/12/14 06:33:15;;;;;;;9.90;8.90;;;;;;;-5.62;81.50;99781.47;5091861;28;20208;-73
2022/12/14 06:35:43;;;;;;;9.47;8.43;;;;;;;-5.59;81.49;99774.84;5091762;28;20215;-72
2022/12/14 06:38:09;;;;;;;9.03;8.13;;;;;;;-5.52;81.69;99772.50;5092009;28;20230;-72
2022/12/14 06:40:36;;;;;;;10.13;7.80;;;;;;;-5.66;80.83;99777.09;5091681;28;20683;-74
2022/12/14 06:43:03;;;;;;;8.93;8.03;;;;;;;-5.66;81.07;99782.19;5091827;28;20219;-73
2022/12/14 06:45:30;;;;;;;9.17;8.30;;;;;;;-5.61;80.62;99773.91;5091803;28;20207;-73
2022/12/14 06:47:57;;;;;;;9.93;8.50;;;;;;;-5.54;80.47;99780.06;5091766;28;20230;-72
2022/12/14 06:50:24;;;;;;;9.40;8.20;;;;;;;-5.47;80.08;99792.19;5091448;28;20257;-74
2022/12/14 06:52:51;;;;;;;11.67;9.00;;;;;;;-5.42;79.54;99812.69;5092057;28;20252;-75
2022/12/14 06:55:18;;;;;;;10.00;9.00;;;;;;;-5.39;79.42;99820.44;5091827;28;20208;-73
2022/12/14 06:57:44;;;;;;;11.00;9.90;;;;;;;-5.44;78.64;99837.19;5091349;28;20234;-73
2022/12/14 07:00:12;;;;;;;11.37;9.17;;;;;;;-5.51;78.70;99841.22;5091628;28;20204;-72
2022/12/14 07:02:39;;;;;;;10.03;8.60;;;;;;;-5.53;78.87;99859.75;5092251;28;20261;-73
2022/12/14 07:05:06;;;;;;;10.07;8.40;;;;;;;-5.53;79.23;99847.03;5091863;28;20204;-72
2022/12/14 07:07:33;;;;;;;10.80;8.43;;;;;;;-5.60;78.98;99856.13;5091637;28;20231;-73
2022/12/14 07:10:00;;;;;;;11.27;10.03;;;;;;;-5.62;78.76;99863.69;5091537;28;20203;-74
2022/12/14 07:12:27;;;;;;;11.30;9.27;;;;;;;-5.74;78.06;99870.88;5091550;28;20269;-72
2022/12/14 07:14:54;;;;;;;12.20;10.80;;;;;;;-5.70;77.98;99879.47;5091629;28;20609;-74
2022/12/14 07:17:20;;;;;;;16.97;13.27;;;;;;;-5.84;78.39;99882.38;5091328;28;20243;-74
2022/12/14 07:19:48;;;;;;;14.90;12.60;;;;;;;-5.85;78.80;99873.00;5091048;28;20672;-74
2022/12/14 07:22:15;;;;;;;20.17;14.33;;;;;;;-5.86;78.39;99878.91;5091426;28;20208;-74
2022/12/14 07:24:42;;;;;;;16.33;14.07;;;;;;;-5.92;78.27;99886.28;5091539;28;20207;-74
2022/12/14 07:27:08;;;;;;;16.73;12.93;;;;;;;-6.00;78.30;99882.63;5091321;28;20216;-75
2022/12/14 07:29:35;;;;;;;13.77;12.37;;;;;;;-6.02;78.48;99884.25;5091716;28;20212;-74
2022/12/14 07:32:01;;;;;;;17.47;15.07;;;;;;;-6.05;78.21;99879.91;5091091;28;20200;-76
2022/12/14 07:34:28;;;;;;;12.47;11.17;;;;;;;-6.07;78.60;99870.50;5091533;28;20215;-75
2022/12/14 07:36:56;;;;;;;14.47;9.30;;;;;;;-6.08;78.81;99856.94;5091394;28;20319;-74
2022/12/14 07:39:22;;;;;;;12.00;8.93;;;;;;;-6.21;78.90;99862.34;5091462;28;20207;-76
2022/12/14 07:41:49;;;;;;;24.60;15.90;;;;;;;-6.09;79.06;99852.66;5091167;28;20216;-75
2022/12/14 07:44:16;;;;;;;13.23;11.43;;;;;;;-6.12;79.21;99849.16;5091308;28;20199;-75
2022/12/14 07:46:43;;;;;;;10.13;8.50;;;;;;;-6.20;79.36;99838.69;5093138;28;20235;-75
2022/12/14 07:49:10;;;;;;;8.57;7.70;;;;;;;-6.15;79.92;99826.16;5094990;28;20203;-74
2022/12/14 07:51:40;;;;;;;11.03;8.07;;;;;;;-6.08;80.54;99805.28;5094866;28;20239;-74
2022/12/14 07:54:08;;;;;;;10.57;8.63;;;;;;;-6.01;79.69;99807.22;5095322;28;20251;-75
2022/12/14 07:56:38;;;;;;;9.43;8.03;;;;;;;-6.00;79.84;99798.78;5094572;28;20231;-74
2022/12/14 07:59:07;;;;;;;9.47;8.33;;;;;;;-5.93;80.45;99793.06;5094743;28;20250;-74
2022/12/14 08:01:35;;;;;;;8.57;7.67;;;;;;;-5.85;80.69;99778.97;5094533;28;20295;-77
2022/12/14 08:04:05;;;;;;;10.80;9.63;;;;;;;-5.86;80.53;99768.78;5094777;28;20208;-74
2022/12/14 08:06:31;;;;;;;10.73;9.60;;;;;;;-5.76;80.60;99768.28;5094444;28;20693;-74
2022/12/14 08:08:59;;;;;;;11.07;9.10;;;;;;;-5.78;80.71;99770.75;5094476;28;20196;-74
2022/12/14 08:11:27;;;;;;;10.67;8.43;;;;;;;-5.71;80.23;99765.91;5094661;28;20215;-76
2022/12/14 08:13:55;;;;;;;8.87;7.97;;;;;;;-5.74;80.55;99773.44;5094506;28;20637;-75
2022/12/14 08:16:22;;;;;;;10.07;8.87;;;;;;;-5.67;80.76;99758.47;5094413;28;20204;-75
2022/12/14 08:18:48;;;;;;;9.53;8.23;;;;;;;-5.65;80.64;99754.28;5094357;28;20227;-75
2022/12/14 08:21:17;;;;;;;9.10;8.23;;;;;;;-5.59;80.19;99757.03;5093495;28;20208;-74
2022/12/14 08:23:44;;;;;;;17.97;10.70;;;;;;;-5.57;80.53;99762.16;5088718;28;20202;-74
2022/12/14 08:26:10;;;;;;;12.97;10.37;;;;;;;-5.62;80.71;99768.78;5087068;28;20201;-81
2022/12/14 08:28:38;;;;;;;14.43;12.80;;;;;;;-5.51;80.38;99754.78;5079919;28;20223;-76
2022/12/14 08:31:07;;;;;;;14.20;12.70;;;;;;;-5.45;80.43;99752.44;5073840;28;20293;-78
2022/12/14 08:33:34;;;;;;;16.63;12.93;;;;;;;-5.47;80.44;99766.78;5079511;28;20204;-78
2022/12/14 08:36:06;;;;;;;12.40;11.27;;;;;;;-5.38;79.51;99764.53;5077212;28;20204;-78
2022/12/14 08:38:32;;;;;;;26.97;17.17;;;;;;;-5.32;79.26;99775.72;5077405;28;20251;-78
2022/12/14 08:41:02;;;;;;;24.73;16.87;;;;;;;-5.30;78.85;99782.59;5077684;28;20204;-78
2022/12/14 08:43:28;;;;;;;22.90;16.90;;;;;;;-5.29;79.48;99794.50;5077275;28;20205;-78
2022/12/14 08:45:56;;;;;;;19.83;17.07;;;;;;;-5.27;79.51;99795.41;5081848;28;20205;-78
2022/12/14 08:48:23;;;;;;;20.97;16.60;;;;;;;-5.29;79.38;99794.50;5085179;28;20705;-78
2022/12/14 08:50:49;;;;;;;18.17;15.00;;;;;;;-5.26;79.00;99811.53;5085755;28;20228;-78
2022/12/14 08:53:16;;;;;;;16.60;12.93;;;;;;;-5.30;78.48;99817.34;5085120;28;20200;-78
2022/12/14 08:55:43;;;;;;;17.80;14.33;;;;;;;-5.31;79.01;99811.41;5076877;28;20223;-78
2022/12/14 08:58:10;;;;;;;22.83;17.60;;;;;;;-5.26;79.38;99807.31;5075592;28;20229;-78
2022/12/14 09:00:37;;;;;;;33.20;21.00;;;;;;;-5.22;79.45;99809.16;5080022;28;20275;-78
2022/12/14 09:03:05;;;;;;;25.67;18.87;;;;;;;-5.17;79.13;99801.69;5074702;28;20254;-76
2022/12/14 09:05:32;;;;;;;17.73;14.63;;;;;;;-5.16;79.74;99802.53;5076885;28;20216;-78
2022/12/14 09:07:58;;;;;;;16.77;14.77;;;;;;;-5.16;80.73;99788.13;5073095;28;20217;-76
2022/12/14 09:10:25;;;;;;;23.00;15.17;;;;;;;-5.12;80.72;99771.31;5079562;28;20200;-77
2022/12/14 09:12:51;;;;;;;24.93;16.40;;;;;;;-5.02;80.49;99768.25;5094748;28;20200;-78
2022/12/14 09:15:18;;;;;;;35.90;18.87;;;;;;;-5.00;80.60;99766.63;5095547;28;20219;-79
2022/12/14 09:17:44;;;;;;;36.80;21.80;;;;;;;-4.93;80.48;99760.91;5098672;28;20255;-78
2022/12/14 09:20:13;;;;;;;32.43;23.33;;;;;;;-4.91;80.68;99753.34;5097811;28;20673;-78
2022/12/14 09:22:39;;;;;;;34.90;22.60;;;;;;;-4.80;81.57;99731.59;5098386;28;20668;-78
2022/12/14 09:25:07;;;;;;;28.57;19.13;;;;;;;-4.74;80.90;99734.34;5100590;28;20208;-78
2022/12/14 09:27:33;;;;;;;26.80;18.93;;;;;;;-4.81;80.95;99740.09;5101719;28;20224;-78
2022/12/14 09:30:00;;;;;;;22.67;17.53;;;;;;;-4.81;80.60;99730.75;5101945;28;20217;-79
2022/12/14 09:32:28;;;;;;;17.77;14.13;;;;;;;-4.66;80.48;99737.13;5098742;28;20204;-76
2022/12/14 09:34:54;;;;;;;15.87;14.07;;;;;;;-4.67;80.71;99745.59;5099392;28;20204;-79
2022/12/14 09:37:22;;;;;;;15.07;11.57;;;;;;;-4.62;80.30;99754.22;5101042;28;20250;-79
2022/12/14 09:39:49;;;;;;;15.90;12.17;;;;;;;-4.59;80.23;99751.78;5095018;28;20215;-78
2022/12/14 09:42:30;;;;;;;11.47;10.27;;;;;;;-4.59;81.16;99745.00;5094533;28;20699;-77
2022/12/14 09:45:02;;;;;;;14.20;11.67;;;;;;;-4.56;81.00;99736.59;5093185;28;20584;-76
2022/12/14 09:47:35;;;;;;;14.80;11.00;;;;;;;-4.49;81.30;99730.03;5096264;28;20228;-77
2022/12/14 09:50:03;;;;;;;13.77;11.37;;;;;;;-4.46;81.05;99719.91;5092615;28;20208;-76
2022/12/14 09:52:37;;;;;;;12.13;10.97;;;;;;;-4.41;81.24;99711.59;5092703;28;20207;-77
2022/12/14 09:55:15;;;;;;;14.83;10.97;;;;;;;-4.36;81.38;99706.66;5093861;28;20207;-78
2022/12/14 09:57:43;;;;;;;16.90;11.97;;;;;;;-4.37;81.41;99701.50;5100365;28;20224;-79
2022/12/14 10:00:13;;;;;;;14.23;12.83;;;;;;;-4.53;82.26;99688.31;5099030;28;20208;-76
2022/12/14 10:02:51;;;;;;;16.40;13.60;;;;;;;-4.59;82.29;99683.03;5092635;28;20204;-76
2022/12/14 10:05:38;;;;;;;15.00;13.43;;;;;;;-4.47;82.72;99668.09;5094736;28;20208;-77
2022/12/14 10:08:12;;;;;;;21.23;17.37;;;;;;;-4.32;82.47;99662.59;5096531;28;20589;-76
2022/12/14 10:10:48;;;;;;;25.03;17.30;;;;;;;-4.24;82.64;99661.13;5097993;28;20203;-77
2022/12/14 10:13:25;;;;;;;16.73;15.00;;;;;;;-4.33;81.87;99657.47;5092566;28;20241;-77
2022/12/14 10:16:04;;;;;;;18.63;16.03;;;;;;;-4.32;81.52;99669.34;5092398;28;20203;-76
2022/12/14 10:18:50;;;;;;;14.53;13.03;;;;;;;-4.22;81.42;99676.47;5093122;28;20231;-78
2022/12/14 10:21:21;;;;;;;14.53;12.67;;;;;;;-4.13;80.88;99684.34;5096295;28;20208;-79
2022/12/14 10:23:54;;;;;;;14.53;12.27;;;;;;;-4.04;80.38;99697.34;5100290;28;20209;-82
2022/12/14 10:26:26;;;;;;;18.00;16.20;;;;;;;-4.04;80.30;99717.75;5099460;28;20775;-79
2022/12/14 10:28:59;;;;;;;15.87;14.27;;;;;;;-4.07;80.79;99726.97;5099768;28;20208;-78
2022/12/14 10:31:33;;;;;;;13.80;12.33;;;;;;;-4.02;80.22;99733.09;5100652;28;20230;-78
2022/12/14 10:34:12;;;;;;;14.57;12.97;;;;;;;-4.06;80.48;99737.22;5101327;28;20204;-78
2022/12/14 10:36:49;;;;;;;15.10;13.13;;;;;;;-4.13;79.75;99745.50;5099047;28;20210;-79
2022/12/14 10:39:24;;;;;;;14.47;12.93;;;;;;;-4.20;79.84;99748.72;5106082;28;20314;-80
2022/12/14 10:41:58;;;;;;;14.90;12.80;;;;;;;-4.22;79.67;99743.56;5107013;28;20188;-79
2022/12/14 10:44:35;;;;;;;13.03;11.83;;;;;;;-4.32;79.54;99761.97;5107369;28;20211;-79
2022/12/14 10:47:09;;;;;;;12.67;11.47;;;;;;;-4.43;79.54;99760.75;5104909;28;20223;-80
2022/12/14 10:49:42;;;;;;;14.13;12.40;;;;;;;-4.45;80.38;99755.63;5106491;28;20208;-80
2022/12/14 10:52:15;;;;;;;12.30;10.90;;;;;;;-4.51;80.22;99747.78;5108425;28;20200;-80
2022/12/14 10:54:48;;;;;;;15.73;11.43;;;;;;;-4.50;80.62;99734.25;5111247;28;20217;-80
2022/12/14 10:57:17;;;;;;;13.67;12.23;;;;;;;-4.54;80.74;99724.75;5110468;28;20224;-80
2022/12/14 10:59:44;;;;;;;12.07;10.87;;;;;;;-4.55;81.24;99715.41;5111053;28;20210;-80
2022/12/14 11:02:15;;;;;;;19.47;11.00;;;;;;;-4.60;81.07;99702.56;5110678;28;20203;-81
2022/12/14 11:04:48;;;;;;;13.07;11.33;;;;;;;-4.60;81.50;99683.84;5111060;28;20188;-80
2022/12/14 11:07:17;;;;;;;15.37;11.40;;;;;;;-4.60;81.52;99674.53;5110733;28;20233;-81
2022/12/14 11:09:45;;;;;;;12.57;10.97;;;;;;;-4.62;82.10;99672.75;5111460;28;20582;-81
2022/12/14 11:12:19;;;;;;;13.27;11.80;;;;;;;-4.56;81.65;99655.09;5110993;28;20264;-80
2022/12/14 11:14:54;;;;;;;12.17;10.97;;;;;;;-4.66;81.52;99656.53;5111465;28;20214;-80
2022/12/14 11:17:36;;;;;;;14.77;13.37;;;;;;;-4.80;82.32;99660.34;5110750;28;20223;-80
2022/12/14 11:20:19;;;;;;;13.03;11.73;;;;;;;-4.66;82.84;99626.00;5110983;28;20207;-81
2022/12/14 11:22:47;;;;;;;14.07;11.50;;;;;;;-4.52;83.00;99613.66;5114675;28;20234;-81
2022/12/14 11:25:36;;;;;;;12.73;11.37;;;;;;;-4.45;82.28;99610.44;5115020;28;20214;-81
2022/12/14 11:28:15;;;;;;;13.27;11.87;;;;;;;-4.42;82.49;99610.53;5115304;28;20224;-81
2022/12/14 11:30:55;;;;;;;14.70;10.43;;;;;;;-4.50;82.91;99614.56;5110096;28;20200;-80
2022/12/14 11:33:22;;;;;;;18.97;12.60;;;;;;;-4.43;83.57;99580.78;5110619;28;20204;-78
2022/12/14 11:35:50;;;;;;;13.30;12.00;;;;;;;-4.32;83.89;99564.91;5107351;28;20204;-81
2022/12/14 11:38:17;;;;;;;14.87;12.43;;;;;;;-4.27;83.65;99556.56;5110428;28;20242;-80
2022/12/14 11:40:46;;;;;;;15.27;13.60;;;;;;;-4.22;83.04;99556.72;5114492;28;20211;-80
2022/12/14 11:43:24;;;;;;;22.60;11.80;;;;;;;-4.29;82.77;99565.88;5114797;28;20210;-81
2022/12/14 11:45:51;;;;;;;13.20;11.67;;;;;;;-4.26;82.96;99568.50;5114788;28;20219;-81
2022/12/14 11:48:21;;;;;;;15.70;14.00;;;;;;;-4.17;82.73;99577.22;5114179;28;20238;-80